Time;durP1;ratioP1;P1;durP2;ratioP2;P2;SDS_P1;SDS_P2;PMS_P1;PMS_P2;Temp;Humidity;BMP_temperature;BMP_pressure;BME280_temperature;BME280_humidity;BME280_pressure;Samples;Min_cycle;Max_cycle;Signal;HPM_P1;HPM_P2
2022/09/05 00:01:42;;;;;;;2.38;1.25;;;;;;;10.54;100.00;99152.72;5171926;27;20635;-49
2022/09/05 00:04:20;;;;;;;2.00;1.20;;;;;;;10.57;100.00;99159.44;5171676;27;20077;-48
2022/09/05 00:06:57;;;;;;;1.35;1.23;;;;;;;10.51;100.00;99158.16;5171409;27;20043;-46
2022/09/05 00:09:38;;;;;;;3.25;1.25;;;;;;;10.56;100.00;99171.53;5171750;27;20058;-46
2022/09/05 00:12:08;;;;;;;1.77;1.45;;;;;;;10.57;100.00;99165.69;5172207;27;20046;-46
2022/09/05 00:14:49;;;;;;;3.70;1.58;;;;;;;10.65;100.00;99174.03;5171591;27;20046;-46
2022/09/05 00:17:23;;;;;;;3.90;1.20;;;;;;;10.73;100.00;99146.41;5171681;27;20397;-47
2022/09/05 00:19:56;;;;;;;1.50;1.38;;;;;;;10.68;100.00;99148.66;5171628;27;20068;-47
2022/09/05 00:22:42;;;;;;;2.28;1.23;;;;;;;10.59;100.00;99174.34;5171600;27;20129;-46
2022/09/05 00:25:31;;;;;;;3.53;1.42;;;;;;;10.40;100.00;99162.66;5171384;27;20054;-46
2022/09/05 00:28:06;;;;;;;5.88;1.50;;;;;;;10.59;100.00;99176.28;5168786;27;20046;-46
2022/09/05 00:30:40;;;;;;;4.07;1.38;;;;;;;10.69;100.00;99163.94;5172018;27;20134;-46
2022/09/05 00:33:24;;;;;;;1.40;1.27;;;;;;;10.40;100.00;99184.56;5174928;27;20095;-47
2022/09/05 00:36:16;;;;;;;1.33;1.20;;;;;;;10.25;100.00;99189.72;5174756;27;20050;-46
2022/09/05 00:38:55;;;;;;;2.00;1.20;;;;;;;10.37;100.00;99202.53;5174836;27;20050;-46
2022/09/05 00:41:22;;;;;;;3.42;1.10;;;;;;;10.25;100.00;99189.72;5174702;27;20565;-46
2022/09/05 00:43:50;;;;;;;4.95;1.98;;;;;;;10.39;100.00;99185.72;5175020;27;20145;-47
2022/09/05 00:46:18;;;;;;;2.60;1.52;;;;;;;10.41;100.00;99169.72;5174559;27;20141;-46
2022/09/05 00:48:48;;;;;;;1.33;1.17;;;;;;;10.43;100.00;99167.38;5174742;27;20049;-46
2022/09/05 00:51:23;;;;;;;3.92;2.85;;;;;;;10.34;100.00;99182.13;5174752;27;20050;-47
2022/09/05 00:54:03;;;;;;;1.10;1.00;;;;;;;10.27;100.00;99190.19;5174667;27;20050;-48
2022/09/05 00:56:55;;;;;;;2.22;1.40;;;;;;;10.10;100.00;99207.84;5174554;27;20523;-48
2022/09/05 00:59:45;;;;;;;3.50;1.33;;;;;;;9.99;100.00;99236.94;5174545;27;20094;-47
2022/09/05 01:02:23;;;;;;;2.95;1.33;;;;;;;9.89;100.00;99249.25;5174371;27;20137;-47
2022/09/05 01:04:57;;;;;;;3.03;1.30;;;;;;;9.76;100.00;99280.63;5174468;27;20551;-47
2022/09/05 01:07:41;;;;;;;1.67;1.10;;;;;;;9.60;100.00;99301.78;5174745;27;20050;-47
2022/09/05 01:10:19;;;;;;;8.02;1.40;;;;;;;9.36;100.00;99390.31;5174492;27;20052;-49
2022/09/05 01:13:16;;;;;;;3.92;1.40;;;;;;;9.34;100.00;99433.66;5174269;27;20042;-50
2022/09/05 01:15:48;;;;;;;1.63;1.38;;;;;;;9.17;100.00;99494.94;5174456;27;20085;-49
2022/09/05 01:18:30;;;;;;;2.35;1.40;;;;;;;9.03;100.00;99560.16;5174166;27;20046;-47
2022/09/05 01:21:12;;;;;;;3.20;1.33;;;;;;;9.06;100.00;99605.94;5174156;27;20053;-48
2022/09/05 01:24:15;;;;;;;3.05;1.50;;;;;;;8.91;100.00;99662.94;5174246;27;20497;-47
2022/09/05 01:27:12;;;;;;;1.63;1.23;;;;;;;8.69;100.00;99773.50;5120787;27;20145;-46
2022/09/05 01:29:47;;;;;;;7.25;1.48;;;;;;;8.72;100.00;99882.16;5171460;27;20564;-47
2022/09/05 01:32:30;;;;;;;4.72;1.60;;;;;;;8.87;100.00;99858.09;5174089;27;20477;-48
2022/09/05 01:35:03;;;;;;;3.85;1.27;;;;;;;8.82;100.00;99812.63;5173870;27;20140;-47
2022/09/05 01:37:36;;;;;;;4.87;1.53;;;;;;;8.74;100.00;99834.59;5174250;27;20053;-50
2022/09/05 01:40:18;;;;;;;3.47;1.45;;;;;;;8.67;100.00;99893.31;5173957;27;20646;-47
2022/09/05 01:43:00;;;;;;;3.42;1.55;;;;;;;8.65;100.00;99924.84;5173942;27;20046;-46
2022/09/05 01:45:36;;;;;;;4.03;1.70;;;;;;;8.41;100.00;99986.41;5173694;27;20138;-47
2022/09/05 01:48:08;;;;;;;2.13;1.17;;;;;;;8.49;100.00;100014.81;5173717;27;20081;-47
2022/09/05 01:50:42;;;;;;;1.85;1.20;;;;;;;8.46;100.00;100027.22;5173808;27;20124;-47
2022/09/05 01:53:24;;;;;;;;;;;;;;;8.32;100.00;100053.94;5174029;27;20098;-46
2022/09/05 01:56:07;;;;;;;3.08;1.75;;;;;;;8.27;100.00;100078.72;5173509;27;20389;-46
2022/09/05 01:58:47;;;;;;;2.42;1.40;;;;;;;8.10;100.00;100085.03;5173440;27;20050;-46
2022/09/05 02:01:21;;;;;;;2.30;1.45;;;;;;;8.12;100.00;100144.78;5173778;27;20606;-45
2022/09/05 02:03:58;;;;;;;1.48;1.30;;;;;;;7.89;100.00;100196.84;5173423;27;20394;-46
2022/09/05 02:06:36;;;;;;;3.97;1.52;;;;;;;8.01;100.00;100243.44;5173367;27;20144;-46
2022/09/05 02:09:27;;;;;;;3.20;1.70;;;;;;;7.86;100.00;100270.41;5173482;27;20045;-47
2022/09/05 02:11:57;;;;;;;3.47;1.63;;;;;;;7.75;100.00;100297.19;5173295;27;20089;-46
2022/09/05 02:14:35;;;;;;;2.03;1.40;;;;;;;7.76;100.00;100334.28;5173495;27;20050;-46
2022/09/05 02:17:16;;;;;;;5.18;1.75;;;;;;;7.67;100.00;100374.44;5173714;27;20054;-46
2022/09/05 02:19:46;;;;;;;3.35;1.85;;;;;;;7.69;100.00;100413.09;5173188;27;20046;-47
2022/09/05 02:22:20;;;;;;;4.88;1.83;;;;;;;7.66;100.00;100438.28;5173082;27;20046;-47
2022/09/05 02:24:53;;;;;;;3.30;2.25;;;;;;;7.62;100.00;100445.50;5173038;27;20078;-47
2022/09/05 02:27:27;;;;;;;2.35;1.50;;;;;;;7.82;100.00;100444.97;5172967;27;20058;-47
2022/09/05 02:30:06;;;;;;;7.85;1.70;;;;;;;7.66;100.00;100419.19;5173040;27;20052;-47
2022/09/05 02:32:45;;;;;;;5.90;1.85;;;;;;;7.75;100.00;100417.31;5172821;27;20550;-46
2022/09/05 02:35:22;;;;;;;3.85;1.63;;;;;;;7.78;100.00;100405.75;5172969;27;20077;-46
2022/09/05 02:37:51;;;;;;;2.20;1.63;;;;;;;7.68;100.00;100401.38;5172912;27;20053;-46
2022/09/05 02:40:23;;;;;;;3.83;1.85;;;;;;;7.55;100.00;100408.56;5172872;27;20042;-46
2022/09/05 02:42:58;;;;;;;4.93;1.60;;;;;;;7.51;100.00;100437.59;5172919;27;20053;-46
2022/09/05 02:45:39;;;;;;;2.05;1.63;;;;;;;7.45;100.00;100468.06;5172707;27;20046;-47
2022/09/05 02:48:19;;;;;;;3.85;1.70;;;;;;;7.45;100.00;100487.94;5172895;27;20085;-46
2022/09/05 02:50:58;;;;;;;2.33;1.48;;;;;;;7.44;100.00;100496.47;5172697;27;20159;-46
2022/09/05 02:53:26;;;;;;;1.73;1.58;;;;;;;7.47;100.00;100498.56;5172252;27;20050;-48
2022/09/05 02:56:12;;;;;;;2.72;1.50;;;;;;;7.36;100.00;100502.66;5172755;27;20050;-48
2022/09/05 02:58:49;;;;;;;3.53;1.70;;;;;;;7.45;100.00;100507.06;5172927;27;20050;-46
2022/09/05 03:01:28;;;;;;;2.28;1.45;;;;;;;7.45;100.00;100509.78;5172508;27;20078;-49
2022/09/05 03:04:09;;;;;;;3.47;1.70;;;;;;;7.35;100.00;100520.16;5172911;27;20153;-47
2022/09/05 03:06:43;;;;;;;1.85;1.50;;;;;;;7.22;100.00;100519.09;5172453;27;20081;-48
2022/09/05 03:09:23;;;;;;;2.95;1.63;;;;;;;7.23;100.00;100523.41;5172772;27;20050;-50
2022/09/05 03:12:23;;;;;;;2.72;1.60;;;;;;;7.24;100.00;100531.31;5172423;27;20049;-48
2022/09/05 03:15:31;;;;;;;5.65;1.48;;;;;;;7.32;100.00;100524.28;5172423;27;20053;-50
2022/09/05 03:18:25;;;;;;;2.50;1.63;;;;;;;7.30;100.00;100529.28;5067309;28;20545;-47
2022/09/05 03:21:42;;;;;;;4.25;1.50;;;;;;;7.34;100.00;100527.53;5067452;28;20052;-46
2022/09/05 03:24:38;;;;;;;4.45;1.77;;;;;;;7.22;100.00;100533.53;5172329;27;20091;-46
2022/09/05 03:27:40;;;;;;;1.95;1.80;;;;;;;7.03;100.00;100543.78;5172481;27;20404;-47
2022/09/05 03:30:14;;;;;;;2.95;1.55;;;;;;;7.22;100.00;100532.72;5172306;27;20050;-46
2022/09/05 03:33:35;;;;;;;5.78;1.60;;;;;;;7.27;100.00;100540.81;5172145;27;20058;-47
2022/09/05 03:36:41;;;;;;;2.63;1.40;;;;;;;7.21;100.00;100544.75;5172231;27;20535;-47
2022/09/05 03:39:41;;;;;;;4.07;1.90;;;;;;;7.20;100.00;100541.22;5172136;27;20500;-47
2022/09/05 03:42:40;;;;;;;4.25;1.70;;;;;;;7.31;100.00;100548.03;5171949;27;20049;-47
2022/09/05 03:45:31;;;;;;;3.55;1.55;;;;;;;7.23;100.00;100545.22;5168627;27;20081;-48
2022/09/05 03:48:15;;;;;;;3.10;1.60;;;;;;;7.29;100.00;100554.91;5171942;27;20137;-46
2022/09/05 03:50:53;;;;;;;4.97;1.50;;;;;;;7.41;100.00;100554.38;5171771;27;20054;-46
2022/09/05 03:53:41;;;;;;;2.85;1.40;;;;;;;7.14;100.00;100558.00;5172233;27;20046;-46
2022/09/05 03:56:25;;;;;;;4.50;1.38;;;;;;;7.42;100.00;100559.50;5171793;27;20489;-46
2022/09/05 03:59:31;;;;;;;2.17;1.45;;;;;;;7.18;100.00;100568.00;5172153;27;20229;-46
2022/09/05 04:02:03;;;;;;;10.32;2.13;;;;;;;7.44;100.00;100570.13;5157412;27;20085;-46
2022/09/05 04:04:36;;;;;;;3.28;1.55;;;;;;;7.19;100.00;100572.31;5171903;27;20049;-47
2022/09/05 04:07:06;;;;;;;4.88;1.50;;;;;;;8.31;100.00;100571.44;5174694;27;20643;-47
2022/09/05 04:09:44;;;;;;;3.03;1.50;;;;;;;8.78;100.00;100530.78;5175243;27;20057;-46
2022/09/05 04:12:16;;;;;;;2.83;1.42;;;;;;;9.20;100.00;100435.38;5175558;27;20046;-48
2022/09/05 04:14:47;;;;;;;1.85;1.67;;;;;;;10.02;100.00;100248.94;5175188;27;20141;-47
2022/09/05 04:17:25;;;;;;;4.00;1.65;;;;;;;10.71;100.00;99863.59;5175095;27;20106;-46
2022/09/05 04:19:58;;;;;;;2.10;1.30;;;;;;;11.03;100.00;99514.09;5175039;27;20133;-47
2022/09/05 04:22:32;;;;;;;1.75;1.50;;;;;;;11.85;100.00;99295.19;5175224;27;20497;-47
2022/09/05 04:25:06;;;;;;;3.03;1.40;;;;;;;12.10;100.00;99182.09;5175452;27;20096;-46
2022/09/05 04:27:37;;;;;;;;;;;;;;;12.52;100.00;99136.97;5175416;27;20108;-47
2022/09/05 04:30:22;;;;;;;2.72;1.30;;;;;;;12.27;100.00;99137.53;5175204;27;20350;-47
2022/09/05 04:32:57;;;;;;;1.92;1.40;;;;;;;12.79;100.00;99130.16;5175181;27;20422;-46
2022/09/05 04:35:32;;;;;;;3.50;1.35;;;;;;;13.12;100.00;99145.75;5174810;27;20081;-47
2022/09/05 04:38:08;;;;;;;3.05;1.30;;;;;;;13.37;100.00;99156.19;5175133;27;20549;-47
2022/09/05 04:40:39;;;;;;;5.55;1.58;;;;;;;13.65;100.00;99200.41;5174839;27;20057;-51
2022/09/05 04:43:12;;;;;;;1.27;1.10;;;;;;;13.71;100.00;99200.84;5174798;27;20082;-47
2022/09/05 04:45:43;;;;;;;1.95;1.20;;;;;;;13.78;100.00;99217.41;5174698;27;20050;-47
2022/09/05 04:48:12;;;;;;;1.60;1.30;;;;;;;14.17;100.00;99246.38;5174755;27;20555;-47
2022/09/05 04:51:06;;;;;;;1.63;1.52;;;;;;;13.89;100.00;99272.56;5174879;27;20042;-47
2022/09/05 04:54:10;;;;;;;1.52;1.23;;;;;;;14.41;100.00;99266.94;5151462;27;20088;-46
2022/09/05 04:56:43;;;;;;;5.30;1.48;;;;;;;15.06;100.00;99313.69;5174846;27;20531;-46
2022/09/05 04:59:16;;;;;;;4.20;1.17;;;;;;;15.18;100.00;99362.22;5174454;27;20107;-47
2022/09/05 05:01:47;;;;;;;2.42;1.50;;;;;;;15.39;100.00;99368.97;5174467;27;20057;-48
2022/09/05 05:04:17;;;;;;;2.25;1.92;;;;;;;14.78;100.00;99349.50;5174534;27;20057;-47
2022/09/05 05:06:49;;;;;;;3.42;2.00;;;;;;;15.07;100.00;99358.66;5174238;27;20054;-48
2022/09/05 05:09:20;;;;;;;2.15;1.67;;;;;;;14.74;100.00;99341.19;5174259;27;20042;-49
2022/09/05 05:11:53;;;;;;;1.55;1.30;;;;;;;15.06;100.00;99351.53;5174069;27;20513;-49
2022/09/05 05:14:24;;;;;;;1.50;1.40;;;;;;;14.42;100.00;99327.22;5174391;27;20046;-49
2022/09/05 05:16:56;;;;;;;1.55;1.20;;;;;;;14.64;100.00;99277.69;5173669;27;20524;-47
2022/09/05 05:19:28;;;;;;;5.78;1.70;;;;;;;14.48;100.00;99269.72;5174690;27;20878;-48
2022/09/05 05:21:57;;;;;;;5.75;1.60;;;;;;;15.34;100.00;99320.44;5174006;27;20110;-48
2022/09/05 05:24:27;;;;;;;6.28;1.40;;;;;;;15.48;100.00;99367.41;5174386;27;20069;-53
2022/09/05 05:27:03;;;;;;;1.45;1.23;;;;;;;16.35;100.00;99456.72;5174133;27;20081;-49
2022/09/05 05:29:42;;;;;;;2.47;1.30;;;;;;;16.58;100.00;99437.72;5174161;27;20052;-50
2022/09/05 05:32:17;;;;;;;3.35;1.20;;;;;;;16.75;100.00;99469.34;5174027;27;20493;-51
2022/09/05 05:34:46;;;;;;;1.35;1.25;;;;;;;16.88;100.00;99466.94;5173798;27;20133;-49
2022/09/05 05:37:18;;;;;;;1.30;1.20;;;;;;;16.90;100.00;99501.34;5174283;27;20832;-48
2022/09/05 05:39:50;;;;;;;3.42;1.73;;;;;;;17.51;100.00;99494.81;5173704;27;20052;-48
2022/09/05 05:42:21;;;;;;;2.88;1.27;;;;;;;18.13;100.00;99566.19;5173622;27;20137;-55
2022/09/05 05:44:51;;;;;;;5.88;1.77;;;;;;;18.33;100.00;99547.81;5173611;27;20606;-53
2022/09/05 05:47:20;;;;;;;2.03;1.13;;;;;;;18.88;100.00;99617.59;5173741;27;20234;-49
2022/09/05 05:49:58;;;;;;;3.67;1.88;;;;;;;18.99;100.00;99613.56;5173729;27;20087;-54
2022/09/05 05:52:49;;;;;;;3.15;1.83;;;;;;;19.86;100.00;99641.22;5173432;27;20046;-54
2022/09/05 05:55:45;;;;;;;2.47;1.55;;;;;;;19.97;100.00;99669.72;5173517;27;20099;-52
2022/09/05 05:58:25;;;;;;;3.08;1.48;;;;;;;20.06;100.00;99669.22;5173458;27;20052;-53
2022/09/05 06:01:25;;;;;;;1.88;1.00;;;;;;;20.36;100.00;99704.59;5173435;27;20072;-50
2022/09/05 06:04:23;;;;;;;2.17;1.75;;;;;;;19.80;100.00;99676.31;5173628;27;20488;-51
2022/09/05 06:07:04;;;;;;;2.50;2.10;;;;;;;20.88;100.00;99716.22;5164056;27;20140;-54
2022/09/05 06:09:57;;;;;;;2.63;1.90;;;;;;;20.77;100.00;99714.84;5173585;27;20082;-55
2022/09/05 06:13:02;;;;;;;2.38;2.03;;;;;;;21.01;100.00;99741.53;5173482;27;20117;-51
2022/09/05 06:16:03;;;;;;;2.63;2.00;;;;;;;20.82;100.00;99731.06;5172944;27;20513;-53
2022/09/05 06:19:06;;;;;;;4.45;1.33;;;;;;;21.43;100.00;99758.81;5173296;27;20061;-52
2022/09/05 06:21:55;;;;;;;1.85;1.75;;;;;;;20.99;100.00;99748.72;5173329;27;20077;-52
2022/09/05 06:24:53;;;;;;;2.92;1.20;;;;;;;20.73;100.00;99755.91;5173115;27;20402;-51
2022/09/05 06:27:35;;;;;;;2.08;1.38;;;;;;;20.71;100.00;99752.72;5172106;27;20046;-49
2022/09/05 06:30:07;;;;;;;3.88;1.30;;;;;;;20.86;100.00;99756.91;5172408;27;20485;-51
2022/09/05 06:33:02;;;;;;;3.63;1.00;;;;;;;21.22;100.00;99771.06;5172974;27;20047;-50
2022/09/05 06:35:49;;;;;;;3.30;1.10;;;;;;;20.61;100.00;99779.53;5172660;27;20046;-49
2022/09/05 06:38:51;;;;;;;1.35;1.20;;;;;;;19.97;100.00;99769.91;5172524;27;20046;-58
2022/09/05 06:41:27;;;;;;;4.32;1.13;;;;;;;20.03;100.00;99764.69;5172785;27;20043;-61
2022/09/05 06:44:35;;;;;;;1.25;1.00;;;;;;;19.72;100.00;99770.94;5172964;27;20072;-61
2022/09/05 06:47:06;;;;;;;3.50;1.30;;;;;;;19.66;100.00;99753.13;5159830;27;20493;-62
2022/09/05 06:49:56;;;;;;;4.13;0.73;;;;;;;19.70;100.00;99783.69;5172732;27;20137;-61
2022/09/05 06:52:45;;;;;;;2.30;0.80;;;;;;;19.24;100.00;99777.28;5172612;27;20054;-59
2022/09/05 06:55:53;;;;;;;1.27;1.00;;;;;;;18.92;100.00;99746.16;5172459;27;20072;-58
2022/09/05 06:58:57;;;;;;;2.30;1.10;;;;;;;19.00;100.00;99762.38;5172604;27;20046;-59
2022/09/05 07:01:27;;;;;;;0.70;0.70;;;;;;;17.94;100.00;99722.81;5172342;27;20482;-61
2022/09/05 07:04:14;;;;;;;3.28;0.90;;;;;;;17.25;100.00;99690.84;5172332;27;20149;-58
2022/09/05 07:06:58;;;;;;;3.35;1.98;;;;;;;18.27;100.00;99582.75;5172370;27;20046;-58
2022/09/05 07:09:29;;;;;;;1.00;0.77;;;;;;;18.75;100.00;99717.31;5172330;27;20516;-61
2022/09/05 07:12:11;;;;;;;2.40;1.55;;;;;;;18.54;100.00;99740.41;5172492;27;20046;-61
2022/09/05 07:14:48;;;;;;;2.17;0.80;;;;;;;17.78;100.00;99737.13;5172118;27;20093;-61
2022/09/05 07:17:19;;;;;;;0.70;0.70;;;;;;;18.89;100.00;99727.53;5172024;27;20054;-61
2022/09/05 07:19:52;;;;;;;0.75;0.73;;;;;;;19.13;100.00;99761.91;5172562;27;20048;-61
2022/09/05 07:22:31;;;;;;;1.40;0.90;;;;;;;18.27;100.00;99738.16;5171970;27;20057;-61
2022/09/05 07:25:02;;;;;;;3.38;1.15;;;;;;;17.74;100.00;99708.59;5171620;27;20414;-60
2022/09/05 07:27:35;;;;;;;0.70;0.70;;;;;;;18.28;100.00;99756.38;5172213;27;20169;-61
2022/09/05 07:30:02;;;;;;;6.32;1.00;;;;;;;18.78;100.00;99767.28;5171932;27;20058;-61
2022/09/05 07:32:31;;;;;;;0.65;0.65;;;;;;;18.87;100.00;99791.06;5171863;27;20082;-61
2022/09/05 07:35:00;;;;;;;1.40;0.95;;;;;;;19.89;100.00;99802.59;5171876;27;20141;-61
2022/09/05 07:37:36;;;;;;;1.98;0.70;;;;;;;19.61;100.00;99816.72;5172072;27;20186;-61
2022/09/05 07:40:09;;;;;;;0.82;0.80;;;;;;;18.68;100.00;99815.31;5173668;27;20065;-61
2022/09/05 07:42:40;;;;;;;4.95;0.80;;;;;;;19.67;100.00;99815.91;5175662;27;20046;-61
2022/09/05 07:45:12;;;;;;;0.70;0.70;;;;;;;19.53;100.00;99832.69;5175873;27;20046;-61
2022/09/05 07:47:43;;;;;;;2.67;0.80;;;;;;;19.56;100.00;99839.41;5175566;27;20133;-61
2022/09/05 07:50:12;;;;;;;4.63;0.80;;;;;;;19.84;100.00;99844.75;5175430;27;20102;-61
2022/09/05 07:52:43;;;;;;;8.48;0.98;;;;;;;19.72;100.00;99856.38;5175313;27;20461;-61
2022/09/05 07:55:24;;;;;;;1.25;0.80;;;;;;;19.31;100.00;99842.38;5175446;27;20043;-61
2022/09/05 07:57:54;;;;;;;6.75;1.40;;;;;;;19.56;100.00;99829.09;5175571;27;20065;-61
2022/09/05 08:00:23;;;;;;;0.70;0.70;;;;;;;19.14;100.00;99830.19;5175583;27;20073;-61
2022/09/05 08:02:50;;;;;;;1.15;1.00;;;;;;;18.44;100.00;99832.88;5175557;27;20046;-61
2022/09/05 08:05:18;;;;;;;4.97;0.95;;;;;;;19.94;100.00;99829.19;5175717;27;20481;-61
2022/09/05 08:07:50;;;;;;;1.00;0.65;;;;;;;18.65;100.00;99835.56;5175306;27;20432;-60
2022/09/05 08:10:20;;;;;;;1.08;0.73;;;;;;;18.77;100.00;99832.38;5175132;27;20490;-61
2022/09/05 08:12:53;;;;;;;1.55;0.80;;;;;;;17.88;100.00;99805.63;5175087;27;20042;-60
2022/09/05 08:15:22;;;;;;;0.70;0.70;;;;;;;16.75;100.00;99779.44;5175217;27;20046;-60
2022/09/05 08:18:00;;;;;;;0.80;0.80;;;;;;;16.68;100.00;99763.56;5175013;27;20523;-60
2022/09/05 08:20:35;;;;;;;1.42;0.90;;;;;;;18.11;100.00;99785.00;5175089;27;20052;-60
2022/09/05 08:23:08;;;;;;;1.50;0.80;;;;;;;19.12;100.00;99807.56;5174928;27;20046;-61
2022/09/05 08:25:47;;;;;;;3.03;0.90;;;;;;;19.88;98.90;99850.28;5175383;27;20646;-60
2022/09/05 08:28:20;;;;;;;2.60;0.77;;;;;;;20.62;94.45;99848.72;5174857;27;20042;-61
2022/09/05 08:30:54;;;;;;;4.75;1.20;;;;;;;20.72;92.89;99851.81;5174805;27;20042;-61
2022/09/05 08:33:24;;;;;;;3.53;0.98;;;;;;;18.77;100.00;99831.56;5174911;27;20501;-60
2022/09/05 08:35:57;;;;;;;1.30;0.75;;;;;;;17.91;100.00;99794.94;5174831;27;20060;-60
2022/09/05 08:38:25;;;;;;;1.10;0.90;;;;;;;17.47;100.00;99780.31;5174875;27;20481;-60
2022/09/05 08:41:01;;;;;;;5.07;1.30;;;;;;;16.84;100.00;99756.91;5174680;27;20056;-60
2022/09/05 08:43:32;;;;;;;1.10;1.00;;;;;;;16.73;100.00;99742.19;5174815;27;20046;-60
2022/09/05 08:46:02;;;;;;;6.45;0.90;;;;;;;16.32;100.00;99746.03;5174527;27;20137;-60
2022/09/05 08:48:45;;;;;;;1.63;0.90;;;;;;;16.92;100.00;99733.56;5174527;27;20077;-60
2022/09/05 08:51:25;;;;;;;1.08;0.98;;;;;;;18.05;100.00;99795.69;5173550;27;20050;-60
2022/09/05 08:54:15;;;;;;;2.75;0.90;;;;;;;18.22;100.00;99815.47;5174297;27;20060;-60
2022/09/05 08:56:52;;;;;;;1.65;0.80;;;;;;;16.89;100.00;99778.66;5174442;27;20054;-60
2022/09/05 08:59:49;;;;;;;2.05;0.80;;;;;;;15.76;100.00;99723.28;5174381;27;20050;-60
2022/09/05 09:02:50;;;;;;;0.65;0.60;;;;;;;16.37;100.00;99736.59;5174575;27;20133;-60
2022/09/05 09:05:30;;;;;;;1.52;0.90;;;;;;;16.08;100.00;99730.13;5174610;27;20149;-60
2022/09/05 09:08:06;;;;;;;1.50;0.70;;;;;;;17.25;100.00;99768.41;5174471;27;20054;-60
2022/09/05 09:10:46;;;;;;;3.72;0.75;;;;;;;16.54;100.00;99769.06;5174273;27;20471;-60
2022/09/05 09:13:34;;;;;;;0.70;0.70;;;;;;;17.16;100.00;99770.81;5174226;27;20489;-60
2022/09/05 09:16:06;;;;;;;1.48;0.75;;;;;;;16.82;100.00;99748.97;5173502;27;20137;-58
2022/09/05 09:18:41;;;;;;;0.90;0.75;;;;;;;16.28;100.00;99761.84;5174195;27;20106;-54
2022/09/05 09:21:23;;;;;;;3.20;0.85;;;;;;;16.99;100.00;99744.66;5174064;27;20087;-54
2022/09/05 09:23:57;;;;;;;10.80;1.27;;;;;;;17.08;100.00;99769.22;5174253;27;20091;-55
2022/09/05 09:26:28;;;;;;;;;;;;;;;16.26;100.00;99764.22;5174727;27;20144;-57
2022/09/05 09:29:01;;;;;;;0.70;0.70;;;;;;;15.62;100.00;99731.44;5174146;27;20385;-50
2022/09/05 09:31:44;;;;;;;1.85;0.60;;;;;;;15.91;100.00;99721.38;5173984;27;20082;-55
2022/09/05 09:34:36;;;;;;;0.68;0.60;;;;;;;15.94;100.00;99725.34;5174325;27;20053;-56
2022/09/05 09:37:39;;;;;;;1.40;0.88;;;;;;;15.61;100.00;99718.00;5174114;27;20053;-56
2022/09/05 09:40:29;;;;;;;1.67;0.80;;;;;;;15.93;100.00;99730.06;5136663;27;20046;-58
2022/09/05 09:43:01;;;;;;;2.70;1.15;;;;;;;15.41;100.00;99729.31;5174013;27;20157;-55
2022/09/05 09:45:50;;;;;;;0.60;0.60;;;;;;;15.85;100.00;99719.34;5173718;27;20050;-55
2022/09/05 09:48:50;;;;;;;3.20;0.85;;;;;;;15.95;100.00;99735.22;5173817;27;20085;-56
2022/09/05 09:51:43;;;;;;;0.70;0.70;;;;;;;15.95;100.00;99730.47;5171157;27;20050;-56
2022/09/05 09:54:49;;;;;;;1.65;0.73;;;;;;;15.96;100.00;99718.25;5173020;27;20049;-57
2022/09/05 09:57:43;;;;;;;1.30;0.90;;;;;;;16.28;100.00;99748.00;5173042;27;20532;-54
2022/09/05 10:00:16;;;;;;;2.42;0.63;;;;;;;16.70;100.00;99752.91;5174008;27;20047;-60
2022/09/05 10:03:12;;;;;;;0.80;0.80;;;;;;;16.39;100.00;99745.28;5172737;27;20099;-58
2022/09/05 10:05:51;;;;;;;1.05;0.75;;;;;;;16.24;100.00;99756.28;5173378;27;20046;-58
2022/09/05 10:08:30;;;;;;;4.70;0.60;;;;;;;15.19;100.00;99711.00;5173599;27;20208;-58
2022/09/05 10:11:23;;;;;;;1.27;0.90;;;;;;;15.22;100.00;99679.84;5173485;27;20050;-61
2022/09/05 10:14:31;;;;;;;1.45;0.90;;;;;;;15.35;100.00;99653.50;5162597;27;20050;-60
2022/09/05 10:17:33;;;;;;;0.70;0.70;;;;;;;15.35;100.00;99649.94;5173071;27;20053;-56
2022/09/05 10:20:34;;;;;;;1.92;0.80;;;;;;;15.45;100.00;99643.69;5162491;27;20122;-57
2022/09/05 10:23:40;;;;;;;2.25;0.77;;;;;;;15.65;100.00;99656.03;5169937;27;20046;-61
2022/09/05 10:26:55;;;;;;;0.63;0.60;;;;;;;15.82;100.00;99707.09;5068151;28;20135;-61
2022/09/05 10:29:46;;;;;;;1.10;0.83;;;;;;;15.74;100.00;99708.25;4989363;28;20527;-60
2022/09/05 10:32:20;;;;;;;3.35;0.60;;;;;;;15.71;100.00;99711.78;5066699;28;20048;-56
2022/09/05 10:34:56;;;;;;;1.35;0.90;;;;;;;16.08;100.00;99691.41;5068203;28;20080;-61
2022/09/05 10:37:28;;;;;;;0.65;0.60;;;;;;;16.07;100.00;99701.69;5068099;28;20060;-60
2022/09/05 10:40:02;;;;;;;1.42;0.85;;;;;;;15.54;100.00;99671.78;5068037;28;20048;-60
2022/09/05 10:42:36;;;;;;;0.75;0.60;;;;;;;15.44;100.00;99687.09;5067762;28;20049;-59
2022/09/05 10:45:04;;;;;;;1.85;0.77;;;;;;;15.04;100.00;99668.69;5067893;28;20139;-60
2022/09/05 10:47:37;;;;;;;1.05;0.73;;;;;;;15.16;100.00;99673.91;5067720;28;20088;-58
2022/09/05 10:50:20;;;;;;;1.67;0.60;;;;;;;15.27;100.00;99693.31;5067704;28;20082;-59
2022/09/05 10:53:07;;;;;;;3.38;0.77;;;;;;;15.51;100.00;99717.53;5067568;28;20135;-58
2022/09/05 10:55:50;;;;;;;0.63;0.63;;;;;;;16.22;100.00;99721.91;5067587;28;20437;-59
2022/09/05 10:58:34;;;;;;;4.45;1.20;;;;;;;16.20;100.00;99721.50;5067382;28;20052;-59
2022/09/05 11:01:04;;;;;;;3.47;0.73;;;;;;;15.87;100.00;99728.84;5155870;27;20052;-59
2022/09/05 11:03:44;;;;;;;1.30;0.60;;;;;;;15.79;100.00;99709.84;5172690;27;20186;-57
2022/09/05 11:06:16;;;;;;;0.50;0.50;;;;;;;16.33;100.00;99708.91;5172086;27;20053;-56
2022/09/05 11:08:53;;;;;;;0.77;0.70;;;;;;;16.37;100.00;99720.78;5172208;27;20129;-54
2022/09/05 11:11:24;;;;;;;0.88;0.70;;;;;;;16.02;100.00;99706.78;5171955;27;20050;-55
2022/09/05 11:13:54;;;;;;;0.60;0.60;;;;;;;16.45;100.00;99716.03;5172309;27;20046;-52
2022/09/05 11:16:27;;;;;;;1.85;0.80;;;;;;;16.74;100.00;99711.38;5171647;27;20141;-52
2022/09/05 11:19:01;;;;;;;0.70;0.70;;;;;;;16.77;100.00;99720.91;5172062;27;20068;-51
2022/09/05 11:21:37;;;;;;;0.50;0.50;;;;;;;16.44;100.00;99726.31;5172256;27;20475;-50
2022/09/05 11:24:12;;;;;;;0.60;0.60;;;;;;;16.54;100.00;99721.22;5172057;27;20466;-50
2022/09/05 11:26:45;;;;;;;1.80;0.60;;;;;;;16.77;100.00;99715.38;5171910;27;20498;-52
2022/09/05 11:29:16;;;;;;;0.80;0.60;;;;;;;16.56;100.00;99718.84;5172080;27;20133;-50
2022/09/05 11:31:54;;;;;;;1.30;0.60;;;;;;;16.33;100.00;99700.59;5172183;27;20502;-52
2022/09/05 11:34:48;;;;;;;0.50;0.50;;;;;;;16.21;100.00;99692.66;5172091;27;20042;-54
2022/09/05 11:37:30;;;;;;;1.13;0.50;;;;;;;15.80;100.00;99669.97;5172089;27;20054;-50
2022/09/05 11:40:30;;;;;;;5.22;0.75;;;;;;;15.28;100.00;99650.69;5172129;27;20050;-53
2022/09/05 11:43:36;;;;;;;4.32;0.90;;;;;;;14.86;100.00;99635.41;5138180;27;20077;-51
2022/09/05 11:46:21;;;;;;;1.15;0.60;;;;;;;14.94;100.00;99622.44;5107286;28;20052;-52
2022/09/05 11:49:43;;;;;;;0.43;0.43;;;;;;;14.42;100.00;99621.56;5164591;27;20624;-50
2022/09/05 11:52:59;;;;;;;4.57;0.80;;;;;;;14.86;100.00;99624.38;5031477;28;20135;-49
2022/09/05 11:55:58;;;;;;;2.47;0.65;;;;;;;15.05;100.00;99635.16;5086996;28;20050;-51
2022/09/05 11:58:53;;;;;;;1.42;0.50;;;;;;;15.03;100.00;99650.53;5171584;27;20050;-47
2022/09/05 12:01:32;;;;;;;1.50;0.75;;;;;;;15.28;100.00;99662.53;5171791;27;20469;-49
2022/09/05 12:04:17;;;;;;;0.50;0.50;;;;;;;15.02;100.00;99659.97;5171943;27;20447;-49
2022/09/05 12:07:27;;;;;;;0.95;0.88;;;;;;;15.27;100.00;99665.69;5171435;27;20477;-48
2022/09/05 12:10:05;;;;;;;1.88;0.80;;;;;;;15.09;100.00;99640.69;5171469;27;20175;-52
2022/09/05 12:12:35;;;;;;;3.13;0.80;;;;;;;15.34;100.00;99671.25;5171532;27;20047;-48
2022/09/05 12:15:15;;;;;;;3.55;0.60;;;;;;;14.44;100.00;99647.63;5171250;27;20106;-47
2022/09/05 12:17:50;;;;;;;0.50;0.50;;;;;;;14.52;100.00;99642.97;5171490;27;20058;-48
2022/09/05 12:20:24;;;;;;;0.93;0.60;;;;;;;14.57;100.00;99654.47;5171907;27;20128;-49
2022/09/05 12:22:56;;;;;;;0.75;0.65;;;;;;;15.02;100.00;99638.66;5171446;27;20050;-49
2022/09/05 12:25:35;;;;;;;0.57;0.57;;;;;;;15.06;100.00;99667.13;5171319;27;20133;-47
2022/09/05 12:28:06;;;;;;;3.92;0.50;;;;;;;14.93;100.00;99667.81;5174090;27;20057;-47
2022/09/05 12:30:36;;;;;;;2.15;0.70;;;;;;;15.19;100.00;99684.16;5174896;27;20561;-47